createdAt,value
2023-04-27T00:01:15.605Z,13.35
2023-04-27T00:03:43.021Z,12.60
2023-04-27T00:06:10.175Z,14.00
2023-04-27T00:08:37.376Z,13.57
2023-04-27T00:11:04.372Z,13.35
2023-04-27T00:13:31.147Z,12.60
2023-04-27T00:16:00.820Z,11.52
2023-04-27T00:18:27.631Z,13.55
2023-04-27T00:20:54.370Z,12.93
2023-04-27T00:23:21.464Z,14.45
2023-04-27T00:25:48.218Z,13.10
2023-04-27T00:28:15.018Z,13.45
2023-04-27T00:30:41.792Z,12.40
2023-04-27T00:33:08.729Z,10.40
2023-04-27T00:35:35.593Z,13.10
2023-04-27T00:38:02.395Z,13.40
2023-04-27T00:40:29.225Z,12.68
2023-04-27T00:42:55.901Z,11.85
2023-04-27T00:45:22.659Z,15.88
2023-04-27T00:47:49.925Z,16.20
2023-04-27T00:50:17.056Z,12.38
2023-04-27T00:52:44.298Z,13.85
2023-04-27T00:55:11.718Z,16.20
2023-04-27T00:57:38.914Z,13.30
2023-04-27T01:00:07.167Z,14.82
2023-04-27T01:02:35.628Z,14.48
2023-04-27T01:05:03.624Z,16.75
2023-04-27T01:07:30.505Z,14.05
2023-04-27T01:09:57.266Z,15.60
2023-04-27T01:12:24.034Z,13.57
2023-04-27T01:14:50.864Z,14.10
2023-04-27T01:17:19.221Z,15.27
2023-04-27T01:19:45.956Z,14.82
2023-04-27T01:22:15.166Z,15.93
2023-04-27T01:24:41.935Z,15.90
2023-04-27T01:27:08.919Z,17.55
2023-04-27T01:29:36.003Z,17.02
2023-04-27T01:32:02.797Z,18.02
2023-04-27T01:34:29.507Z,15.27
2023-04-27T01:36:56.410Z,17.65
2023-04-27T01:39:23.191Z,18.95
2023-04-27T01:41:49.902Z,16.45
2023-04-27T01:44:16.783Z,15.93
2023-04-27T01:46:43.474Z,17.95
2023-04-27T01:49:10.272Z,19.48
2023-04-27T01:51:37.038Z,21.02
2023-04-27T01:54:03.830Z,18.40
2023-04-27T01:56:30.638Z,20.00
2023-04-27T01:58:57.369Z,20.00
2023-04-27T02:01:24.224Z,21.95
2023-04-27T02:03:51.197Z,22.13
2023-04-27T02:06:17.968Z,23.40
2023-04-27T02:08:44.768Z,22.60
2023-04-27T02:11:11.482Z,26.00
2023-04-27T02:13:38.248Z,19.33
2023-04-27T02:16:05.371Z,22.63
2023-04-27T02:18:33.762Z,22.88
2023-04-27T02:21:01.100Z,22.73
2023-04-27T02:23:27.876Z,20.02
2023-04-27T02:25:54.709Z,21.35
2023-04-27T02:28:21.361Z,19.17
2023-04-27T02:30:48.477Z,21.33
2023-04-27T02:33:15.206Z,21.67
2023-04-27T02:35:41.953Z,19.88
2023-04-27T02:38:08.697Z,20.83
2023-04-27T02:40:35.573Z,18.80
2023-04-27T02:43:02.368Z,17.20
2023-04-27T02:45:29.713Z,16.20
2023-04-27T02:47:56.598Z,19.23
2023-04-27T02:50:23.448Z,16.98
2023-04-27T02:52:50.136Z,17.60
2023-04-27T02:55:17.211Z,15.63
2023-04-27T02:57:44.284Z,15.65
2023-04-27T03:00:11.924Z,15.60
2023-04-27T03:02:38.790Z,16.50
2023-04-27T03:05:06.024Z,19.63
2023-04-27T03:07:32.841Z,17.23
2023-04-27T03:09:59.597Z,14.80
2023-04-27T03:12:26.322Z,15.60
2023-04-27T03:14:53.193Z,16.05
2023-04-27T03:17:19.864Z,15.00
2023-04-27T03:19:48.570Z,15.27
2023-04-27T03:22:15.457Z,20.08
2023-04-27T03:24:42.906Z,14.25
2023-04-27T03:27:09.770Z,15.10
2023-04-27T03:29:36.674Z,15.40
2023-04-27T03:32:04.518Z,13.57
2023-04-27T03:34:31.668Z,14.02
2023-04-27T03:36:58.530Z,13.65
2023-04-27T03:39:25.248Z,15.98
2023-04-27T03:41:52.002Z,13.15
2023-04-27T03:44:18.655Z,13.75
2023-04-27T03:46:45.383Z,16.30
2023-04-27T03:49:12.283Z,16.00
2023-04-27T03:51:42.303Z,16.08
2023-04-27T03:54:10.043Z,14.77
2023-04-27T03:56:37.094Z,16.17
2023-04-27T03:59:06.652Z,13.80
2023-04-27T04:01:34.176Z,13.52
2023-04-27T04:04:01.136Z,14.93
2023-04-27T04:06:28.136Z,17.20
2023-04-27T04:08:55.639Z,18.52
2023-04-27T04:11:23.528Z,16.17
2023-04-27T04:13:50.236Z,17.05
2023-04-27T04:16:16.948Z,15.88
2023-04-27T04:18:43.655Z,16.25
2023-04-27T04:21:13.173Z,16.83
2023-04-27T04:23:41.246Z,15.25
2023-04-27T04:26:08.923Z,14.93
2023-04-27T04:28:35.947Z,15.02
2023-04-27T04:31:03.236Z,13.00
2023-04-27T04:33:29.971Z,15.07
2023-04-27T04:35:57.231Z,15.13
2023-04-27T04:38:23.979Z,16.23
2023-04-27T04:40:52.625Z,15.68
2023-04-27T04:43:19.345Z,13.90
2023-04-27T04:45:46.790Z,16.42
2023-04-27T04:48:17.554Z,14.98
2023-04-27T04:50:44.310Z,15.98
2023-04-27T04:53:11.109Z,16.15
2023-04-27T04:55:37.794Z,16.85
2023-04-27T04:58:04.534Z,16.95
2023-04-27T05:00:31.356Z,14.38
2023-04-27T05:02:58.342Z,15.45
2023-04-27T05:05:25.090Z,16.85
2023-04-27T05:07:51.740Z,12.73
2023-04-27T05:10:18.617Z,15.30
2023-04-27T05:12:45.505Z,16.13
2023-04-27T05:15:12.395Z,16.58
2023-04-27T05:17:39.226Z,15.98
2023-04-27T05:20:07.090Z,17.23
2023-04-27T05:22:33.922Z,15.50
2023-04-27T05:25:00.742Z,17.70
2023-04-27T05:27:27.528Z,15.32
2023-04-27T05:29:54.347Z,13.05
2023-04-27T05:32:21.080Z,13.35
2023-04-27T05:34:49.481Z,16.65
2023-04-27T05:37:16.505Z,15.65
2023-04-27T05:39:43.214Z,16.13
2023-04-27T05:42:10.172Z,12.93
2023-04-27T05:44:36.873Z,15.85
2023-04-27T05:47:03.649Z,13.23
2023-04-27T05:49:30.568Z,17.20
2023-04-27T05:51:59.078Z,12.55
2023-04-27T05:54:27.498Z,18.13
2023-04-27T05:56:54.300Z,15.07
2023-04-27T05:59:21.867Z,14.98
2023-04-27T06:01:48.870Z,14.45
2023-04-27T06:04:15.839Z,13.30
2023-04-27T06:06:42.675Z,14.32
2023-04-27T06:09:09.436Z,14.32
2023-04-27T06:11:36.215Z,13.13
2023-04-27T06:14:02.956Z,14.20
2023-04-27T06:16:29.827Z,16.02
2023-04-27T06:18:56.665Z,14.68
2023-04-27T06:21:23.391Z,13.07
2023-04-27T06:23:50.086Z,15.55
2023-04-27T06:26:16.793Z,13.45
2023-04-27T06:28:43.738Z,16.67
2023-04-27T06:31:10.500Z,13.30
2023-04-27T06:33:37.268Z,13.75
2023-04-27T06:36:04.092Z,13.57
2023-04-27T06:38:31.020Z,14.40
2023-04-27T06:40:57.912Z,12.10
2023-04-27T06:43:24.825Z,12.60
2023-04-27T06:45:51.755Z,14.35
2023-04-27T06:48:18.555Z,18.42
2023-04-27T06:50:45.365Z,11.55
2023-04-27T06:53:12.258Z,9.88
2023-04-27T06:55:41.607Z,8.63
2023-04-27T06:58:09.878Z,8.77
2023-04-27T07:00:36.639Z,8.48
2023-04-27T07:03:03.545Z,11.88
2023-04-27T07:05:30.426Z,8.52
2023-04-27T07:07:57.178Z,8.05
2023-04-27T07:10:23.911Z,12.05
2023-04-27T07:12:50.670Z,10.43
2023-04-27T07:15:17.449Z,11.38
2023-04-27T07:17:44.207Z,12.18
2023-04-27T07:20:11.335Z,10.93
2023-04-27T07:22:38.068Z,11.30
2023-04-27T07:25:05.433Z,10.32
2023-04-27T07:27:32.955Z,7.70
2023-04-27T07:29:59.649Z,10.60
2023-04-27T07:32:26.798Z,13.25
2023-04-27T07:34:55.694Z,10.05
2023-04-27T07:37:23.304Z,10.60
2023-04-27T07:39:52.991Z,9.63
2023-04-27T07:42:20.242Z,9.77
2023-04-27T07:44:47.376Z,11.48
2023-04-27T07:47:14.351Z,10.48
2023-04-27T07:49:41.093Z,9.43
2023-04-27T07:52:08.322Z,9.05
2023-04-27T07:54:35.738Z,10.52
2023-04-27T07:57:07.612Z,9.55
2023-04-27T07:59:34.427Z,9.43
2023-04-27T08:02:17.782Z,7.15
2023-04-27T08:04:46.920Z,7.00
2023-04-27T08:07:15.011Z,11.20
2023-04-27T08:09:41.964Z,6.63
2023-04-27T08:12:08.674Z,9.43
2023-04-27T08:14:36.204Z,10.68
2023-04-27T08:17:03.113Z,7.53
2023-04-27T08:19:29.919Z,8.25
2023-04-27T08:21:56.723Z,7.03
2023-04-27T08:24:23.761Z,6.63
2023-04-27T08:26:50.686Z,6.40
2023-04-27T08:29:27.206Z,7.00
2023-04-27T08:31:58.989Z,9.10
2023-04-27T08:34:26.177Z,8.63
2023-04-27T08:36:54.118Z,9.57
2023-04-27T08:39:21.693Z,4.97
2023-04-27T08:41:48.408Z,5.40
2023-04-27T08:44:15.273Z,5.70
2023-04-27T08:46:42.474Z,7.03
2023-04-27T08:49:09.989Z,5.65
2023-04-27T08:51:36.807Z,8.48
2023-04-27T08:54:03.675Z,6.63
2023-04-27T08:56:31.308Z,5.28
2023-04-27T08:59:00.687Z,5.72
2023-04-27T09:01:27.733Z,6.68
2023-04-27T09:04:00.283Z,7.55
2023-04-27T09:06:35.570Z,6.13
2023-04-27T09:09:03.490Z,6.90
2023-04-27T09:11:33.116Z,7.32
2023-04-27T09:14:01.313Z,8.93
2023-04-27T09:16:29.535Z,5.70
2023-04-27T09:18:59.693Z,6.18
2023-04-27T09:21:28.785Z,10.60
2023-04-27T09:23:56.474Z,5.65
2023-04-27T09:26:27.803Z,5.72
2023-04-27T09:28:59.157Z,5.20
2023-04-27T09:31:33.217Z,7.03
2023-04-27T09:34:00.262Z,8.63
2023-04-27T09:36:27.067Z,7.35
2023-04-27T09:38:54.094Z,9.00
2023-04-27T09:41:21.866Z,6.30
2023-04-27T09:43:48.912Z,6.82
2023-04-27T09:46:15.848Z,8.13
2023-04-27T09:48:43.060Z,5.03
2023-04-27T09:51:09.868Z,7.60
2023-04-27T09:53:44.164Z,7.05
2023-04-27T09:56:42.305Z,7.80
2023-04-27T09:59:20.679Z,6.43
2023-04-27T10:01:51.349Z,5.97
2023-04-27T10:04:24.402Z,7.40
2023-04-27T10:07:01.641Z,6.72
2023-04-27T10:09:35.576Z,6.95
2023-04-27T10:12:15.674Z,7.93
2023-04-27T10:14:48.931Z,7.97
2023-04-27T10:17:16.498Z,8.57
2023-04-27T10:19:57.309Z,7.60
2023-04-27T10:22:37.615Z,7.03
2023-04-27T10:25:14.068Z,6.88
2023-04-27T10:27:41.173Z,9.02
2023-04-27T10:30:13.090Z,8.00
2023-04-27T10:32:56.852Z,11.00
2023-04-27T10:35:36.634Z,8.18
2023-04-27T10:38:10.355Z,8.70
2023-04-27T10:40:38.720Z,6.95
2023-04-27T10:43:13.776Z,8.98
2023-04-27T10:45:44.675Z,7.60
2023-04-27T10:48:15.745Z,7.20
2023-04-27T10:50:44.645Z,8.50
2023-04-27T10:53:11.386Z,9.75
2023-04-27T10:55:38.445Z,9.32
2023-04-27T10:58:05.224Z,9.13
2023-04-27T11:00:35.387Z,8.68
2023-04-27T11:03:19.723Z,13.68
2023-04-27T11:05:48.222Z,7.30
2023-04-27T11:08:19.421Z,9.05
2023-04-27T11:10:49.846Z,7.22
2023-04-27T11:13:20.220Z,10.25
2023-04-27T11:15:57.535Z,9.05
2023-04-27T11:18:26.981Z,8.68
2023-04-27T11:21:11.052Z,8.90
2023-04-27T11:23:39.033Z,7.03
2023-04-27T11:26:26.746Z,7.35
2023-04-27T11:29:05.320Z,6.75
2023-04-27T11:31:49.380Z,8.25
2023-04-27T11:34:17.209Z,9.95
2023-04-27T11:36:44.112Z,7.00
2023-04-27T11:39:19.374Z,9.38
2023-04-27T11:41:46.578Z,7.15
2023-04-27T11:44:13.526Z,7.95
2023-04-27T11:46:44.123Z,6.70
2023-04-27T11:49:11.273Z,8.63
2023-04-27T11:51:40.431Z,8.20
2023-04-27T11:54:07.863Z,9.93
2023-04-27T11:56:39.978Z,9.23
2023-04-27T11:59:17.708Z,9.07
2023-04-27T12:01:44.516Z,8.07
2023-04-27T12:04:11.423Z,9.60
2023-04-27T12:06:38.965Z,10.68
2023-04-27T12:09:05.774Z,8.43
2023-04-27T12:11:33.256Z,9.07
2023-04-27T12:13:59.921Z,9.25
2023-04-27T12:16:27.073Z,6.80
2023-04-27T12:18:53.846Z,7.05
2023-04-27T12:21:21.353Z,7.88
2023-04-27T12:23:48.099Z,6.95
2023-04-27T12:26:15.450Z,10.10
2023-04-27T12:28:42.497Z,13.10
2023-04-27T12:31:13.522Z,12.30
2023-04-27T12:33:40.587Z,8.27
2023-04-27T12:36:07.569Z,8.10
2023-04-27T12:38:34.286Z,7.85
2023-04-27T12:41:02.564Z,12.02
2023-04-27T12:43:29.228Z,7.20
2023-04-27T12:45:56.286Z,10.30
2023-04-27T12:48:23.607Z,9.15
2023-04-27T12:50:50.542Z,7.75
2023-04-27T12:53:17.265Z,12.30
2023-04-27T12:55:44.112Z,11.13
2023-04-27T12:58:11.042Z,12.65
2023-04-27T13:00:38.506Z,9.45
2023-04-27T13:03:06.788Z,7.97
2023-04-27T13:05:33.734Z,11.43
2023-04-27T13:08:01.620Z,8.82
2023-04-27T13:10:29.615Z,8.43
2023-04-27T13:12:56.360Z,13.15
2023-04-27T13:15:23.106Z,8.98
2023-04-27T13:17:49.903Z,9.38
2023-04-27T13:20:17.066Z,9.50
2023-04-27T13:22:43.825Z,7.95
2023-04-27T13:25:10.626Z,9.90
2023-04-27T13:27:37.399Z,8.30
2023-04-27T13:30:05.503Z,10.40
2023-04-27T13:32:32.399Z,10.90
2023-04-27T13:34:59.586Z,8.40
2023-04-27T13:37:27.086Z,9.82
2023-04-27T13:39:53.808Z,9.45
2023-04-27T13:42:20.709Z,9.13
2023-04-27T13:44:47.431Z,10.20
2023-04-27T13:47:14.386Z,10.45
2023-04-27T13:49:41.274Z,7.97
2023-04-27T13:52:08.045Z,11.98
2023-04-27T13:54:34.817Z,11.88
2023-04-27T13:57:03.400Z,10.07
2023-04-27T13:59:30.375Z,10.63
2023-04-27T14:01:57.138Z,8.75
2023-04-27T14:04:23.939Z,9.82
2023-04-27T14:06:50.824Z,9.30
2023-04-27T14:09:17.538Z,9.65
2023-04-27T14:11:55.706Z,9.80
2023-04-27T14:14:24.201Z,8.38
2023-04-27T14:16:51.383Z,11.13
2023-04-27T14:19:20.420Z,10.18
2023-04-27T14:21:49.206Z,11.48
2023-04-27T14:24:16.176Z,8.07
2023-04-27T14:26:44.192Z,12.60
2023-04-27T14:29:11.777Z,9.18
2023-04-27T14:31:39.330Z,9.45
2023-04-27T14:34:06.927Z,8.05
2023-04-27T14:36:33.774Z,10.75
2023-04-27T14:39:01.439Z,9.73
2023-04-27T14:41:28.352Z,9.23
2023-04-27T14:43:55.162Z,7.65
2023-04-27T14:46:22.236Z,10.05
2023-04-27T14:48:49.796Z,7.80
2023-04-27T14:51:16.824Z,8.00
2023-04-27T14:53:44.235Z,8.27
2023-04-27T14:56:11.608Z,8.02
2023-04-27T14:58:38.779Z,8.10
2023-04-27T15:01:06.101Z,7.88
2023-04-27T15:03:33.415Z,8.18
2023-04-27T15:06:01.567Z,8.18
2023-04-27T15:08:28.945Z,7.15
2023-04-27T15:10:59.632Z,6.55
2023-04-27T15:13:27.302Z,8.80
2023-04-27T15:15:57.758Z,8.48
2023-04-27T15:18:25.309Z,8.15
2023-04-27T15:20:52.831Z,8.55
2023-04-27T15:23:20.271Z,7.82
2023-04-27T15:25:47.886Z,7.25
2023-04-27T15:28:16.258Z,9.63
2023-04-27T15:30:46.333Z,8.80
2023-04-27T15:33:16.088Z,9.23
2023-04-27T15:35:43.098Z,9.25
2023-04-27T15:38:12.191Z,10.15
2023-04-27T15:40:40.009Z,10.18
2023-04-27T15:43:06.927Z,8.70
2023-04-27T15:45:33.941Z,11.10
2023-04-27T15:48:00.757Z,9.82
2023-04-27T15:50:27.661Z,10.07
2023-04-27T15:52:54.431Z,11.10
2023-04-27T15:55:22.734Z,9.73
2023-04-27T15:57:50.348Z,9.10
2023-04-27T16:00:18.855Z,12.02
2023-04-27T16:02:46.929Z,11.65
2023-04-27T16:08:54.477Z,8.30
2023-04-27T16:11:21.324Z,10.23
2023-04-27T16:13:48.174Z,12.27
2023-04-27T16:16:14.940Z,8.13
2023-04-27T16:18:41.898Z,8.85
2023-04-27T16:21:08.755Z,9.65
2023-04-27T16:23:35.644Z,12.20
2023-04-27T16:26:02.329Z,9.82
2023-04-27T16:28:29.076Z,9.70
2023-04-27T16:30:55.846Z,7.78
2023-04-27T16:33:22.549Z,8.77
2023-04-27T16:35:49.886Z,8.43
2023-04-27T16:38:16.638Z,7.47
2023-04-27T16:40:43.551Z,7.82
2023-04-27T16:43:10.637Z,8.02
2023-04-27T16:45:38.838Z,9.25
2023-04-27T16:48:06.287Z,8.25
2023-04-27T16:50:33.454Z,9.10
2023-04-27T16:53:08.077Z,9.00
2023-04-27T16:55:35.498Z,11.57
2023-04-27T16:58:02.298Z,11.90
2023-04-27T17:00:29.528Z,9.40
2023-04-27T17:02:56.576Z,10.70
2023-04-27T17:05:23.544Z,9.95
2023-04-27T17:07:50.223Z,8.25
2023-04-27T17:10:18.488Z,11.30
2023-04-27T17:12:45.161Z,9.73
2023-04-27T17:15:12.302Z,8.88
2023-04-27T17:17:39.045Z,11.65
2023-04-27T17:20:07.588Z,8.80
2023-04-27T17:22:34.380Z,9.15
2023-04-27T17:25:01.137Z,8.57
2023-04-27T17:27:27.845Z,9.05
2023-04-27T17:29:56.149Z,8.55
2023-04-27T17:32:24.584Z,11.52
2023-04-27T17:34:52.518Z,7.55
2023-04-27T17:37:19.427Z,9.23
2023-04-27T17:39:46.551Z,9.48
2023-04-27T17:42:13.266Z,10.60
2023-04-27T17:44:42.023Z,12.20
2023-04-27T17:47:09.150Z,8.45
2023-04-27T17:49:36.325Z,11.25
2023-04-27T17:52:03.166Z,11.27
2023-04-27T17:54:30.312Z,7.80
2023-04-27T17:56:57.544Z,8.02
2023-04-27T17:59:24.933Z,8.65
2023-04-27T18:01:52.139Z,8.68
2023-04-27T18:04:19.124Z,8.02
2023-04-27T18:06:46.099Z,7.97
2023-04-27T18:09:12.999Z,7.25
2023-04-27T18:11:39.852Z,7.90
2023-04-27T18:14:06.695Z,9.95
2023-04-27T18:16:33.494Z,8.38
2023-04-27T18:19:00.271Z,9.30
2023-04-27T18:21:27.903Z,7.07
2023-04-27T18:23:54.636Z,9.07
2023-04-27T18:26:22.071Z,7.97
2023-04-27T18:28:48.752Z,9.65
2023-04-27T18:31:19.285Z,9.30
2023-04-27T18:33:46.725Z,11.02
2023-04-27T18:36:13.579Z,7.72
2023-04-27T18:38:40.619Z,8.57
2023-04-27T18:41:07.912Z,9.18
2023-04-27T18:43:36.604Z,8.27
2023-04-27T18:46:04.348Z,7.97
2023-04-27T18:48:31.433Z,8.52
2023-04-27T18:50:58.241Z,8.85
2023-04-27T18:53:24.973Z,8.07
2023-04-27T18:55:51.775Z,8.00
2023-04-27T18:58:18.492Z,9.18
2023-04-27T19:00:45.428Z,8.30
2023-04-27T19:03:12.340Z,8.10
2023-04-27T19:05:45.584Z,7.70
2023-04-27T19:08:12.317Z,7.45
2023-04-27T19:10:41.528Z,7.65
2023-04-27T19:13:08.517Z,7.20
2023-04-27T19:15:35.498Z,10.02
2023-04-27T19:18:09.945Z,8.18
2023-04-27T19:20:38.480Z,9.65
2023-04-27T19:23:05.512Z,7.93
2023-04-27T19:25:32.305Z,7.78
2023-04-27T19:27:59.040Z,8.18
2023-04-27T19:30:25.922Z,8.35
2023-04-27T19:32:52.771Z,10.07
2023-04-27T19:35:20.388Z,11.75
2023-04-27T19:37:47.202Z,7.75
2023-04-27T19:40:14.926Z,12.77
2023-04-27T19:42:41.650Z,8.27
2023-04-27T19:45:08.535Z,8.95
2023-04-27T19:47:35.682Z,7.82
2023-04-27T19:50:03.073Z,6.95
2023-04-27T19:52:30.705Z,8.45
2023-04-27T19:54:57.778Z,9.43
2023-04-27T19:57:24.508Z,8.20
2023-04-27T19:59:51.241Z,10.05
2023-04-27T20:02:18.033Z,8.82
2023-04-27T20:04:44.988Z,10.98
2023-04-27T20:07:12.180Z,10.13
2023-04-27T20:09:38.962Z,8.75
2023-04-27T20:12:05.884Z,8.30
2023-04-27T20:14:35.233Z,9.65
2023-04-27T20:17:02.955Z,11.52
2023-04-27T20:19:30.184Z,9.68
2023-04-27T20:21:57.058Z,10.13
2023-04-27T20:24:24.020Z,10.45
2023-04-27T20:26:50.810Z,9.02
2023-04-27T20:29:17.474Z,9.60
2023-04-27T20:31:44.965Z,8.98
2023-04-27T20:34:11.869Z,8.20
2023-04-27T20:36:38.685Z,8.40
2023-04-27T20:39:05.571Z,11.05
2023-04-27T20:41:35.148Z,8.60
2023-04-27T20:44:02.598Z,9.65
2023-04-27T20:46:29.911Z,11.63
2023-04-27T20:48:56.640Z,7.63
2023-04-27T20:51:23.725Z,10.38
2023-04-27T20:53:50.941Z,9.27
2023-04-27T20:56:17.636Z,8.18
2023-04-27T20:58:44.276Z,8.57
2023-04-27T21:01:11.188Z,11.07
2023-04-27T21:03:38.023Z,8.77
2023-04-27T21:06:05.052Z,8.65
2023-04-27T21:08:31.799Z,9.20
2023-04-27T21:10:58.602Z,8.82
2023-04-27T21:13:25.450Z,9.82
2023-04-27T21:15:52.130Z,9.20
2023-04-27T21:18:29.071Z,8.32
2023-04-27T21:20:57.380Z,8.38
2023-04-27T21:23:24.147Z,9.45
2023-04-27T21:25:50.839Z,8.02
2023-04-27T21:28:17.556Z,7.43
2023-04-27T21:30:44.330Z,11.75
2023-04-27T21:33:11.143Z,7.80
2023-04-27T21:35:37.904Z,12.80
2023-04-27T21:38:04.615Z,9.77
2023-04-27T21:40:31.348Z,8.95
2023-04-27T21:42:58.070Z,8.23
2023-04-27T21:45:24.886Z,8.98
2023-04-27T21:47:51.625Z,7.68
2023-04-27T21:50:18.544Z,10.25
2023-04-27T21:52:45.464Z,7.55
2023-04-27T21:55:12.326Z,8.95
2023-04-27T21:57:39.102Z,10.32
2023-04-27T22:00:13.434Z,8.43
2023-04-27T22:02:42.692Z,8.85
2023-04-27T22:05:09.764Z,9.20
2023-04-27T22:07:37.579Z,10.45
2023-04-27T22:10:05.779Z,8.52
2023-04-27T22:12:33.397Z,10.13
2023-04-27T22:15:00.256Z,9.38
2023-04-27T22:17:27.774Z,9.52
2023-04-27T22:19:54.865Z,10.77
2023-04-27T22:22:21.581Z,8.25
2023-04-27T22:24:48.659Z,10.23
2023-04-27T22:27:15.607Z,9.75
2023-04-27T22:29:42.329Z,11.30
2023-04-27T22:32:09.752Z,11.48
2023-04-27T22:34:37.209Z,9.10
2023-04-27T22:37:04.072Z,10.40
2023-04-27T22:39:31.583Z,9.70
2023-04-27T22:41:58.358Z,12.02
2023-04-27T22:44:25.896Z,10.50
2023-04-27T22:46:52.741Z,12.75
2023-04-27T22:49:19.554Z,11.43
2023-04-27T22:51:47.313Z,11.23
2023-04-27T22:54:15.029Z,12.52
2023-04-27T22:56:42.013Z,11.75
2023-04-27T22:59:08.820Z,9.23
2023-04-27T23:01:35.701Z,11.02
2023-04-27T23:04:02.912Z,9.77
2023-04-27T23:06:30.351Z,13.38
2023-04-27T23:08:57.202Z,10.40
2023-04-27T23:11:24.045Z,9.70
2023-04-27T23:13:50.815Z,10.75
2023-04-27T23:16:17.531Z,10.38
2023-04-27T23:18:44.362Z,11.38
2023-04-27T23:21:11.623Z,11.70
2023-04-27T23:23:38.385Z,11.98
2023-04-27T23:26:14.957Z,12.93
2023-04-27T23:28:41.915Z,11.18
2023-04-27T23:31:09.183Z,11.32
2023-04-27T23:33:36.126Z,12.73
2023-04-27T23:36:03.539Z,11.40
2023-04-27T23:38:30.315Z,11.93
2023-04-27T23:40:57.181Z,12.07
2023-04-27T23:43:23.998Z,11.07
2023-04-27T23:45:53.930Z,14.55
2023-04-27T23:51:05.174Z,12.23
2023-04-27T23:53:31.847Z,12.30
2023-04-27T23:55:58.795Z,11.32
2023-04-27T23:58:26.127Z,11.48
